JBU1938 MDSD-TJSJ
Flight info
| Callsign | JBU1938 |
|---|---|
| Flight time | 0h 38m |
| Altitude | 21000 |
| Route | MELLA2L MELLA G633 MAZ RTE12 JOSHE JOSHE3 |
| Aircraft | A320/M-SDE3FGHIRWY/LB1 |
Departure
| Time | 2026-04-29 02:11 |
|---|---|
| Airport | Las Américas International Airport (MDSD) |
Arrival
| Time | 2026-04-29 02:49 |
|---|---|
| Airport | Luis Munoz Marin International Airport (TJSJ) |
| Time | Latitude | Longitude | Altitude | Speed | Heading |
|---|---|---|---|---|---|
| 2026-04-29 01:36 | 18.43115 | -69.67557 | 68 ft | 0 kts | 289° |
| 2026-04-29 02:00 | 18.43112 | -69.67552 | 68 ft | 4 kts | 264° |
| 2026-04-29 02:01 | 18.43116 | -69.67533 | 60 ft | 3 kts | 266° |
| 2026-04-29 02:01 | 18.43120 | -69.67506 | 60 ft | 4 kts | 244° |
| 2026-04-29 02:01 | 18.43136 | -69.67483 | 65 ft | 4 kts | 219° |
| 2026-04-29 02:01 | 18.43146 | -69.67475 | 65 ft | 1 kts | 216° |
| 2026-04-29 02:02 | 18.43147 | -69.67474 | 64 ft | 1 kts | 216° |
| 2026-04-29 02:04 | 18.43126 | -69.67479 | 57 ft | 5 kts | 177° |
| 2026-04-29 02:04 | 18.43089 | -69.67453 | 64 ft | 7 kts | 149° |
| 2026-04-29 02:05 | 18.43047 | -69.67433 | 64 ft | 7 kts | 157° |
| 2026-04-29 02:05 | 18.43007 | -69.67405 | 64 ft | 8 kts | 135° |
| 2026-04-29 02:05 | 18.42971 | -69.67357 | 64 ft | 9 kts | 116° |
| 2026-04-29 02:05 | 18.42967 | -69.67282 | 62 ft | 13 kts | 92° |
| 2026-04-29 02:06 | 18.42953 | -69.67187 | 64 ft | 13 kts | 98° |
| 2026-04-29 02:06 | 18.42952 | -69.67173 | 65 ft | 0 kts | 96° |
| 2026-04-29 02:07 | 18.42952 | -69.67172 | 65 ft | 3 kts | 96° |
| 2026-04-29 02:08 | 18.42897 | -69.67061 | 71 ft | 23 kts | 158° |
| 2026-04-29 02:08 | 18.42772 | -69.67016 | 69 ft | 31 kts | 159° |
| 2026-04-29 02:08 | 18.42560 | -69.66939 | 68 ft | 34 kts | 161° |
| 2026-04-29 02:08 | 18.42330 | -69.66859 | 67 ft | 36 kts | 162° |
| 2026-04-29 02:09 | 18.42090 | -69.66770 | 67 ft | 37 kts | 159° |
| 2026-04-29 02:09 | 18.41842 | -69.66676 | 69 ft | 38 kts | 161° |
| 2026-04-29 02:09 | 18.41643 | -69.66560 | 70 ft | 19 kts | 147° |
| 2026-04-29 02:09 | 18.41610 | -69.66591 | 71 ft | 4 kts | 309° |
| 2026-04-29 02:10 | 18.41650 | -69.66606 | 70 ft | 14 kts | 340° |
| 2026-04-29 02:10 | 18.42001 | -69.66739 | 68 ft | 90 kts | 341° |
| 2026-04-29 02:10 | 18.42785 | -69.67020 | 65 ft | 145 kts | 341° |
| 2026-04-29 02:10 | 18.43854 | -69.67416 | 243 ft | 174 kts | 341° |
| 2026-04-29 02:11 | 18.45024 | -69.67850 | 858 ft | 182 kts | 341° |
| 2026-04-29 02:11 | 18.46240 | -69.68287 | 1495 ft | 193 kts | 342° |
| 2026-04-29 02:11 | 18.47587 | -69.68742 | 1869 ft | 212 kts | 342° |
| 2026-04-29 02:11 | 18.49086 | -69.69186 | 2231 ft | 237 kts | 354° |
| 2026-04-29 02:12 | 18.50740 | -69.68950 | 2662 ft | 247 kts | 27° |
| 2026-04-29 02:12 | 18.52051 | -69.67746 | 3295 ft | 258 kts | 58° |
| 2026-04-29 02:12 | 18.52744 | -69.66000 | 4203 ft | 263 kts | 80° |
| 2026-04-29 02:12 | 18.52720 | -69.64070 | 5120 ft | 267 kts | 97° |
| 2026-04-29 02:13 | 18.52456 | -69.62108 | 6062 ft | 272 kts | 98° |
| 2026-04-29 02:13 | 18.52171 | -69.60121 | 6952 ft | 276 kts | 98° |
| 2026-04-29 02:13 | 18.51876 | -69.58106 | 7778 ft | 281 kts | 98° |
| 2026-04-29 02:13 | 18.51574 | -69.56052 | 8569 ft | 286 kts | 98° |
| 2026-04-29 02:14 | 18.51269 | -69.53961 | 9332 ft | 291 kts | 98° |
| 2026-04-29 02:14 | 18.50962 | -69.51842 | 10083 ft | 295 kts | 98° |
| 2026-04-29 02:14 | 18.50642 | -69.49633 | 10418 ft | 316 kts | 99° |
| 2026-04-29 02:14 | 18.50300 | -69.47266 | 10604 ft | 338 kts | 99° |
| 2026-04-29 02:15 | 18.49941 | -69.44763 | 11037 ft | 350 kts | 99° |
| 2026-04-29 02:15 | 18.49571 | -69.42204 | 11672 ft | 355 kts | 99° |
| 2026-04-29 02:15 | 18.49200 | -69.39608 | 12309 ft | 361 kts | 99° |
| 2026-04-29 02:15 | 18.48827 | -69.37012 | 12955 ft | 365 kts | 99° |
| 2026-04-29 02:16 | 18.48438 | -69.34315 | 13593 ft | 370 kts | 99° |
| 2026-04-29 02:16 | 18.48056 | -69.31653 | 14212 ft | 374 kts | 99° |
| 2026-04-29 02:16 | 18.47664 | -69.28930 | 14807 ft | 379 kts | 99° |
| 2026-04-29 02:16 | 18.47265 | -69.26167 | 15400 ft | 383 kts | 99° |
| 2026-04-29 02:17 | 18.46864 | -69.23374 | 15979 ft | 387 kts | 99° |
| 2026-04-29 02:17 | 18.46463 | -69.20552 | 16546 ft | 391 kts | 99° |
| 2026-04-29 02:17 | 18.46053 | -69.17706 | 17108 ft | 395 kts | 99° |
| 2026-04-29 02:17 | 18.45632 | -69.14833 | 17646 ft | 399 kts | 100° |
| 2026-04-29 02:18 | 18.45206 | -69.11931 | 18207 ft | 403 kts | 100° |
| 2026-04-29 02:18 | 18.44776 | -69.08993 | 18754 ft | 407 kts | 100° |
| 2026-04-29 02:18 | 18.44342 | -69.06031 | 19294 ft | 411 kts | 100° |
| 2026-04-29 02:18 | 18.43904 | -69.03037 | 19826 ft | 416 kts | 100° |
| 2026-04-29 02:19 | 18.43464 | -69.00014 | 20347 ft | 420 kts | 100° |
| 2026-04-29 02:19 | 18.43019 | -68.96962 | 20847 ft | 424 kts | 101° |
| 2026-04-29 02:19 | 18.42547 | -68.93883 | 21038 ft | 426 kts | 103° |
| 2026-04-29 02:19 | 18.41839 | -68.90814 | 21088 ft | 439 kts | 106° |
| 2026-04-29 02:20 | 18.41081 | -68.87662 | 21082 ft | 446 kts | 106° |
| 2026-04-29 02:20 | 18.40323 | -68.84485 | 21080 ft | 449 kts | 106° |
| 2026-04-29 02:20 | 18.39562 | -68.81297 | 21083 ft | 449 kts | 106° |
| 2026-04-29 02:20 | 18.38798 | -68.78103 | 21084 ft | 450 kts | 106° |
| 2026-04-29 02:21 | 18.38035 | -68.74909 | 21080 ft | 450 kts | 106° |
| 2026-04-29 02:21 | 18.37273 | -68.71713 | 21080 ft | 450 kts | 106° |
| 2026-04-29 02:21 | 18.36511 | -68.68521 | 21082 ft | 450 kts | 106° |
| 2026-04-29 02:21 | 18.35750 | -68.65324 | 21080 ft | 450 kts | 106° |
| 2026-04-29 02:22 | 18.34992 | -68.62138 | 21080 ft | 450 kts | 106° |
| 2026-04-29 02:22 | 18.34227 | -68.58944 | 21085 ft | 450 kts | 106° |
| 2026-04-29 02:22 | 18.33453 | -68.55748 | 21083 ft | 450 kts | 107° |
| 2026-04-29 02:22 | 18.32683 | -68.52558 | 21083 ft | 450 kts | 107° |
| 2026-04-29 02:23 | 18.31917 | -68.49362 | 21081 ft | 450 kts | 106° |
| 2026-04-29 02:23 | 18.31165 | -68.46209 | 21083 ft | 450 kts | 106° |
| 2026-04-29 02:23 | 18.30402 | -68.43017 | 21082 ft | 450 kts | 107° |
| 2026-04-29 02:23 | 18.29636 | -68.39827 | 21082 ft | 450 kts | 107° |
| 2026-04-29 02:24 | 18.28867 | -68.36632 | 21082 ft | 450 kts | 107° |
| 2026-04-29 02:24 | 18.28096 | -68.33440 | 21088 ft | 450 kts | 107° |
| 2026-04-29 02:24 | 18.27324 | -68.30251 | 21087 ft | 450 kts | 107° |
| 2026-04-29 02:25 | 18.25781 | -68.23868 | 21086 ft | 450 kts | 107° |
| 2026-04-29 02:25 | 18.25010 | -68.20679 | 21088 ft | 450 kts | 107° |
| 2026-04-29 02:25 | 18.24240 | -68.17484 | 21086 ft | 451 kts | 107° |
| 2026-04-29 02:25 | 18.23468 | -68.14295 | 21088 ft | 450 kts | 107° |
| 2026-04-29 02:26 | 18.22693 | -68.11106 | 21090 ft | 450 kts | 107° |
| 2026-04-29 02:26 | 18.21919 | -68.07921 | 21089 ft | 450 kts | 107° |
| 2026-04-29 02:26 | 18.21143 | -68.04736 | 21089 ft | 450 kts | 107° |
| 2026-04-29 02:26 | 18.20435 | -68.01526 | 21085 ft | 451 kts | 101° |
| 2026-04-29 02:27 | 18.20167 | -67.98232 | 21085 ft | 454 kts | 92° |
| 2026-04-29 02:27 | 18.20337 | -67.94915 | 21086 ft | 455 kts | 87° |
| 2026-04-29 02:27 | 18.20466 | -67.93103 | 21089 ft | 454 kts | 87° |
| 2026-04-29 02:27 | 18.20701 | -67.89788 | 21080 ft | 454 kts | 87° |
| 2026-04-29 02:28 | 18.20933 | -67.86473 | 21084 ft | 455 kts | 87° |
| 2026-04-29 02:28 | 18.21159 | -67.83155 | 21086 ft | 454 kts | 87° |
| 2026-04-29 02:28 | 18.21384 | -67.79837 | 21081 ft | 454 kts | 87° |
| 2026-04-29 02:28 | 18.21608 | -67.76520 | 21082 ft | 454 kts | 87° |
| 2026-04-29 02:29 | 18.21832 | -67.73208 | 21078 ft | 454 kts | 87° |
| 2026-04-29 02:29 | 18.22054 | -67.69888 | 21081 ft | 455 kts | 88° |
| 2026-04-29 02:29 | 18.22275 | -67.66569 | 21084 ft | 455 kts | 87° |
| 2026-04-29 02:29 | 18.22499 | -67.63246 | 21084 ft | 455 kts | 87° |
| 2026-04-29 02:30 | 18.22722 | -67.59922 | 21086 ft | 455 kts | 87° |
| 2026-04-29 02:30 | 18.22945 | -67.56604 | 21091 ft | 455 kts | 87° |
| 2026-04-29 02:30 | 18.23165 | -67.53280 | 21088 ft | 455 kts | 88° |
| 2026-04-29 02:30 | 18.23379 | -67.50008 | 21091 ft | 454 kts | 88° |
| 2026-04-29 02:31 | 18.23596 | -67.46697 | 21086 ft | 454 kts | 88° |
| 2026-04-29 02:31 | 18.23812 | -67.43383 | 21072 ft | 454 kts | 88° |
| 2026-04-29 02:31 | 18.24027 | -67.40067 | 21077 ft | 454 kts | 87° |
| 2026-04-29 02:31 | 18.24244 | -67.36750 | 21075 ft | 454 kts | 87° |
| 2026-04-29 02:32 | 18.24462 | -67.33438 | 21075 ft | 454 kts | 87° |
| 2026-04-29 02:32 | 18.24680 | -67.30125 | 21075 ft | 454 kts | 87° |
| 2026-04-29 02:32 | 18.24897 | -67.26817 | 20955 ft | 450 kts | 87° |
| 2026-04-29 02:32 | 18.25110 | -67.23581 | 20736 ft | 436 kts | 87° |
| 2026-04-29 02:33 | 18.25316 | -67.20456 | 20636 ft | 422 kts | 87° |
| 2026-04-29 02:33 | 18.25514 | -67.17425 | 20542 ft | 408 kts | 87° |
| 2026-04-29 02:33 | 18.25652 | -67.14496 | 20453 ft | 393 kts | 92° |
| 2026-04-29 02:33 | 18.25589 | -67.11668 | 20296 ft | 381 kts | 93° |
| 2026-04-29 02:34 | 18.25527 | -67.08888 | 19839 ft | 380 kts | 93° |
| 2026-04-29 02:34 | 18.25465 | -67.06119 | 19354 ft | 379 kts | 93° |
| 2026-04-29 02:34 | 18.25406 | -67.03351 | 18872 ft | 377 kts | 92° |
| 2026-04-29 02:34 | 18.25350 | -67.00597 | 18368 ft | 377 kts | 92° |
| 2026-04-29 02:35 | 18.25295 | -66.97839 | 17800 ft | 377 kts | 92° |
| 2026-04-29 02:35 | 18.25240 | -66.95077 | 17266 ft | 379 kts | 92° |
| 2026-04-29 02:35 | 18.25184 | -66.92301 | 16743 ft | 380 kts | 92° |
| 2026-04-29 02:35 | 18.25126 | -66.89521 | 16198 ft | 379 kts | 92° |
| 2026-04-29 02:36 | 18.25066 | -66.86762 | 15658 ft | 377 kts | 92° |
| 2026-04-29 02:36 | 18.25006 | -66.84011 | 15109 ft | 375 kts | 92° |
| 2026-04-29 02:36 | 18.24947 | -66.81277 | 14572 ft | 373 kts | 92° |
| 2026-04-29 02:36 | 18.24887 | -66.78574 | 14018 ft | 364 kts | 92° |
| 2026-04-29 02:37 | 18.24829 | -66.75933 | 13485 ft | 359 kts | 91° |
| 2026-04-29 02:37 | 18.24792 | -66.74199 | 12873 ft | 358 kts | 91° |
| 2026-04-29 02:37 | 18.24741 | -66.71883 | 12120 ft | 363 kts | 91° |
| 2026-04-29 02:37 | 18.24682 | -66.69204 | 11138 ft | 368 kts | 91° |
| 2026-04-29 02:38 | 18.24623 | -66.66539 | 10166 ft | 361 kts | 91° |
| 2026-04-29 02:38 | 18.24566 | -66.63955 | 9534 ft | 345 kts | 91° |
| 2026-04-29 02:38 | 18.24512 | -66.61499 | 9068 ft | 327 kts | 91° |
| 2026-04-29 02:38 | 18.24458 | -66.59196 | 8646 ft | 312 kts | 91° |
| 2026-04-29 02:39 | 18.24403 | -66.56966 | 8234 ft | 298 kts | 90° |
| 2026-04-29 02:39 | 18.24351 | -66.54799 | 7833 ft | 286 kts | 90° |
| 2026-04-29 02:39 | 18.24301 | -66.52742 | 7454 ft | 280 kts | 91° |
| 2026-04-29 02:39 | 18.24461 | -66.50730 | 7072 ft | 280 kts | 77° |
| 2026-04-29 02:40 | 18.25118 | -66.48822 | 6807 ft | 275 kts | 62° |
| 2026-04-29 02:40 | 18.26135 | -66.47144 | 6568 ft | 271 kts | 56° |
| 2026-04-29 02:40 | 18.27181 | -66.45510 | 6333 ft | 267 kts | 56° |
| 2026-04-29 02:40 | 18.28205 | -66.43896 | 6096 ft | 264 kts | 57° |
| 2026-04-29 02:41 | 18.29217 | -66.42293 | 5880 ft | 263 kts | 57° |
| 2026-04-29 02:41 | 18.30227 | -66.40694 | 5657 ft | 262 kts | 57° |
| 2026-04-29 02:41 | 18.31233 | -66.39102 | 5422 ft | 261 kts | 57° |
| 2026-04-29 02:41 | 18.32236 | -66.37511 | 5209 ft | 262 kts | 57° |
| 2026-04-29 02:42 | 18.33246 | -66.35924 | 4976 ft | 260 kts | 57° |
| 2026-04-29 02:42 | 18.34250 | -66.34341 | 4762 ft | 258 kts | 57° |
| 2026-04-29 02:42 | 18.35244 | -66.32775 | 4534 ft | 257 kts | 57° |
| 2026-04-29 02:42 | 18.36225 | -66.31231 | 4312 ft | 256 kts | 57° |
| 2026-04-29 02:43 | 18.37201 | -66.29690 | 4099 ft | 250 kts | 57° |
| 2026-04-29 02:43 | 18.38163 | -66.28184 | 3887 ft | 245 kts | 57° |
| 2026-04-29 02:43 | 18.39104 | -66.26708 | 3680 ft | 240 kts | 57° |
| 2026-04-29 02:43 | 18.40023 | -66.25267 | 3468 ft | 234 kts | 57° |
| 2026-04-29 02:44 | 18.40919 | -66.23858 | 3267 ft | 228 kts | 58° |
| 2026-04-29 02:44 | 18.41789 | -66.22490 | 3076 ft | 221 kts | 58° |
| 2026-04-29 02:44 | 18.42630 | -66.21174 | 2892 ft | 213 kts | 58° |
| 2026-04-29 02:44 | 18.43282 | -66.19815 | 2714 ft | 204 kts | 77° |
| 2026-04-29 02:45 | 18.43399 | -66.18359 | 2533 ft | 196 kts | 90° |
| 2026-04-29 02:45 | 18.43390 | -66.16940 | 2373 ft | 192 kts | 90° |
| 2026-04-29 02:45 | 18.43382 | -66.15553 | 2199 ft | 192 kts | 90° |
| 2026-04-29 02:45 | 18.43379 | -66.14190 | 2060 ft | 177 kts | 90° |
| 2026-04-29 02:46 | 18.43377 | -66.12939 | 1873 ft | 165 kts | 89° |
| 2026-04-29 02:46 | 18.43377 | -66.11756 | 1686 ft | 159 kts | 90° |
| 2026-04-29 02:46 | 18.43374 | -66.10594 | 1503 ft | 159 kts | 90° |
| 2026-04-29 02:46 | 18.43372 | -66.09428 | 1330 ft | 159 kts | 90° |
| 2026-04-29 02:47 | 18.43370 | -66.08265 | 1248 ft | 160 kts | 90° |
| 2026-04-29 02:47 | 18.43371 | -66.07096 | 1099 ft | 159 kts | 90° |
| 2026-04-29 02:47 | 18.43375 | -66.05933 | 829 ft | 158 kts | 90° |
| 2026-04-29 02:47 | 18.43365 | -66.04781 | 612 ft | 158 kts | 90° |
| 2026-04-29 02:48 | 18.43370 | -66.03622 | 406 ft | 158 kts | 90° |
| 2026-04-29 02:48 | 18.43367 | -66.02474 | 231 ft | 156 kts | 90° |
| 2026-04-29 02:48 | 18.43359 | -66.01333 | 54 ft | 153 kts | 90° |
| 2026-04-29 02:48 | 18.43360 | -66.00339 | 17 ft | 105 kts | 91° |
| 2026-04-29 02:49 | 18.43383 | -65.99935 | 18 ft | 30 kts | 53° |
| 2026-04-29 02:49 | 18.43466 | -65.99984 | 17 ft | 17 kts | 273° |
| 2026-04-29 02:49 | 18.43467 | -66.00112 | 17 ft | 19 kts | 270° |
| 2026-04-29 02:49 | 18.43476 | -66.00259 | 19 ft | 17 kts | 296° |
| 2026-04-29 02:50 | 18.43541 | -66.00314 | 17 ft | 9 kts | 342° |
| 2026-04-29 02:50 | 18.43598 | -66.00330 | 17 ft | 6 kts | 342° |
| 2026-04-29 02:50 | 18.43611 | -66.00334 | 17 ft | 0 kts | 342° |